Thunder radar more information blitzortung!


Radar de pluja more information rain snow radar


Visita la nostra xarxa de llocs de meteo:

Template documentation
and downloads

And another site



No particular awareness of the weather is required.    There are no Weather-warnings

Pagina Historial Weather Underground text

Diari Resum Desembre 08, 2017 Unitats:  Mètric    Imperial   Tant
« Previous Dia
SegĂźent Dia »
Diari Setmana Mensual Anual Personalitzada
  Maxima: Minima: Media:
Temperatura: -17.8 °C -16.4 °C -14.6 °C
Punt de rosada: -17.8 °C -20.2 °C -18.5 °C
Humitat: Humidity % 55 % 60 %
Wind Speed: 0 km/h 0 km/h 6.8 km/h
RĂ fegues de vent: 0 km/h - -
Vent:- - SSE
Pression baro: 0 hPa 34496.6 hPa -
Precipitacions: 0 mm    
Historical Graphs
 
 
Dades de taula per Desembre 08, 2017
Temps Temperatura Punt de rosada Pression baro Vent Wind Speed RĂ fegues de vent Humitat Rainfall Rate (Hourly)
-17.8 °C -17.8 °C 0 hPa Calm     Humidity % 0 mm
00:01 -14.9 °C -19.4 °C 34740.4 hPa SW 6 km/h 6 km/h 56 % 0 mm
00:06 -15 °C -19.5 °C 34740.4 hPa SW 3.1 km/h 3.1 km/h 56 % 0 mm
00:15 -16.3 °C -20.1 °C 34635.4 hPa WSW 5.1 km/h 5.1 km/h 61 % 0 mm
00:25 -16.3 °C -20.1 °C 34635.4 hPa WSW 2.6 km/h 5.1 km/h 61 % 0 mm
00:35 -16.4 °C -20.2 °C 34635.4 hPa NW 2.6 km/h 5.1 km/h 61 % 0 mm
00:45 -16.4 °C -20.2 °C 34635.4 hPa North 5.1 km/h 5.1 km/h 61 % 0 mm
01:05 -16.3 °C -19.9 °C 34635.4 hPa Calm   5.1 km/h 62 % 0 mm
01:25 -16.3 °C -19.9 °C 34635.4 hPa NNE 2.6 km/h 7.7 km/h 62 % 0 mm
01:45 -16.3 °C -19.9 °C 34635.4 hPa NNE 2.6 km/h 7.7 km/h 62 % 0 mm
01:55 -16.2 °C -19.9 °C 34635.4 hPa NE 5.1 km/h 7.7 km/h 62 % 0 mm
08:06 -16.2 °C -19.9 °C 34635.4 hPa Calm   2.3 km/h 62 % 0 mm
08:21 -16.1 °C -19.8 °C 34635.4 hPa NNE 9.3 km/h 9.3 km/h 62 % 0 mm
08:26 -16.1 °C -19.8 °C 34635.4 hPa ENE 9 km/h 9 km/h 62 % 0 mm
08:31 -16.1 °C -19.8 °C 34635.4 hPa SW 6 km/h 6 km/h 62 % 0 mm
08:36 -16.2 °C -19.8 °C 34635.4 hPa NW 9.8 km/h 9.8 km/h 62 % 0 mm
08:38 -16.2 °C -19.8 °C 34635.4 hPa West 9 km/h 9 km/h 62 % 0 mm
08:43 -16.1 °C -19.8 °C 34635.4 hPa North 11.9 km/h 11.9 km/h 62 % 0 mm
08:48 -16.1 °C -19.7 °C 34635.4 hPa East 6 km/h 6 km/h 62 % 0 mm
08:53 -16.1 °C -19.7 °C 34635.4 hPa NNW 9 km/h 9 km/h 62 % 0 mm
08:58 -16 °C -19.7 °C 34635.4 hPa NNW 9 km/h 9 km/h 62 % 0 mm
09:03 -15.9 °C -19.7 °C 34635.4 hPa North 6.8 km/h 6.8 km/h 61 % 0 mm
09:08 -15.9 °C -19.7 °C 34635.4 hPa North 6 km/h 6 km/h 61 % 0 mm
09:13 -15.8 °C -19.6 °C 34635.4 hPa NNE 11.1 km/h 11.1 km/h 61 % 0 mm
09:18 -15.8 °C -19.6 °C 34635.4 hPa North 6.8 km/h 6.8 km/h 61 % 0 mm
09:33 -15.4 °C -19.3 °C 34635.4 hPa East 6.3 km/h 6.3 km/h 61 % 0 mm
09:43 -15.2 °C -19.1 °C 34635.4 hPa West 9 km/h 9 km/h 61 % 0 mm
09:48 -15.2 °C -19.1 °C 34635.4 hPa ESE 15 km/h 15 km/h 61 % 0 mm
09:53 -15.2 °C -19.2 °C 34635.4 hPa NNE 6.8 km/h 6.8 km/h 60 % 0 mm
10:03 -15.2 °C -19.1 °C 34635.4 hPa NNW 6 km/h 6 km/h 60 % 0 mm
10:08 -15.1 °C -19.1 °C 34635.4 hPa NNE 6 km/h 6 km/h 60 % 0 mm
10:09 -15.1 °C -19.1 °C 34635.4 hPa NNE 6.3 km/h 6.3 km/h 60 % 0 mm
10:14 -15 °C -18.9 °C 34635.4 hPa NE 6 km/h   60 % 0 mm
10:19 -14.9 °C -18.9 °C 34635.4 hPa NNW 6 km/h 6 km/h 60 % 0 mm
10:29 -14.9 °C -18.8 °C 34635.4 hPa ESE 9.3 km/h 9.3 km/h 60 % 0 mm
10:39 -14.8 °C -18.9 °C 34635.4 hPa NNE 6.3 km/h 6.3 km/h 59 % 0 mm
10:44 -14.8 °C -18.9 °C 34635.4 hPa NE 9 km/h 9 km/h 59 % 0 mm
10:49 -14.7 °C -18.8 °C 34635.4 hPa NNW 9 km/h 9 km/h 59 % 0 mm
10:54 -14.7 °C -18.8 °C 34635.4 hPa WNW 11.9 km/h 11.9 km/h 59 % 0 mm
10:59 -14.7 °C -18.8 °C 34601.5 hPa NNW 6 km/h 6 km/h 59 % 0 mm
11:04 -14.7 °C -18.8 °C 34601.5 hPa NNW 11.9 km/h 11.9 km/h 59 % 0 mm
11:09 -14.6 °C -18.7 °C 34601.5 hPa NNE 12.2 km/h 12.2 km/h 59 % 0 mm
11:14 -14.6 °C -18.7 °C 34601.5 hPa NNW 15 km/h 15 km/h 59 % 0 mm
11:19 -14.6 °C -18.8 °C 34601.5 hPa ENE 11.1 km/h 11.1 km/h 58 % 0 mm
11:24 -14.6 °C -18.8 °C 34601.5 hPa NNW 9 km/h 9 km/h 58 % 0 mm
11:29 -14.6 °C -18.8 °C 34601.5 hPa NNW 11.9 km/h 11.9 km/h 58 % 0 mm
11:34 -14.5 °C -18.7 °C 34601.5 hPa South 15 km/h 15 km/h 58 % 0 mm
11:39 -14.4 °C -18.7 °C 34601.5 hPa ENE 7.6 km/h 7.6 km/h 58 % 0 mm
11:44 -14.4 °C -18.7 °C 34601.5 hPa SW 9 km/h 9.3 km/h 58 % 0 mm
11:49 -14.4 °C -18.7 °C 34601.5 hPa NNE 15 km/h 15 km/h 58 % 0 mm
11:54 -14.4 °C -18.7 °C 34601.5 hPa NNW 9 km/h 9 km/h 58 % 0 mm
11:59 -14.4 °C -18.8 °C 34601.5 hPa ESE 9 km/h 9 km/h 57 % 0 mm
12:04 -14.4 °C -18.8 °C 34601.5 hPa NNE 15 km/h 15 km/h 57 % 0 mm
12:09 -14.4 °C -18.8 °C 34601.5 hPa NE 11.9 km/h 11.9 km/h 57 % 0 mm
12:19 -14.4 °C -18.8 °C 34601.5 hPa NNE 11.9 km/h 11.9 km/h 57 % 0 mm
12:29 -14.3 °C -18.7 °C 34601.5 hPa NNE 14.5 km/h 14.5 km/h 57 % 0 mm
12:39 -14.2 °C -18.6 °C 34601.5 hPa NE 9 km/h 9 km/h 57 % 0 mm
12:44 -14.2 °C -18.6 °C 34601.5 hPa ENE 11.9 km/h 11.9 km/h 57 % 0 mm
12:49 -14.2 °C -18.6 °C 34601.5 hPa NNE 11.9 km/h 11.9 km/h 57 % 0 mm
12:54 -14.2 °C -18.6 °C 34601.5 hPa WNW 6 km/h 6.3 km/h 57 % 0 mm
12:59 -14.1 °C -18.5 °C 34601.5 hPa NE 6 km/h 6 km/h 57 % 0 mm
13:04 -14.1 °C -18.5 °C 34601.5 hPa ENE 11.9 km/h 11.9 km/h 57 % 0 mm
13:14 -14 °C -18.4 °C 34601.5 hPa NNE 11.9 km/h 11.9 km/h 57 % 0 mm
13:24 -13.9 °C -18.3 °C 34601.5 hPa NW 9.8 km/h 9.8 km/h 57 % 0 mm
13:29 -13.9 °C -18.3 °C 34567.7 hPa NNE 11.9 km/h 11.9 km/h 57 % 0 mm
13:34 -13.9 °C -18.4 °C 34567.7 hPa ENE 11.9 km/h 11.9 km/h 56 % 0 mm
13:39 -13.9 °C -18.4 °C 34567.7 hPa NNE 9 km/h 9 km/h 56 % 0 mm
13:49 -13.8 °C -18.3 °C 34567.7 hPa NE 17.9 km/h 17.9 km/h 56 % 0 mm
13:59 -13.7 °C -18.3 °C 34567.7 hPa ESE 6.8 km/h 8 km/h 56 % 0 mm
14:04 -13.7 °C -18.2 °C 34567.7 hPa NW 9 km/h 9 km/h 56 % 0 mm
14:09 -13.6 °C -18.2 °C 34567.7 hPa NW 11.9 km/h 11.9 km/h 56 % 0 mm
14:14 -13.6 °C -18.1 °C 34533.8 hPa NNW 15 km/h 15 km/h 56 % 0 mm
14:24 -13.6 °C -18.1 °C 34533.8 hPa ENE 15 km/h 15 km/h 56 % 0 mm
14:34 -13.6 °C -18.1 °C 34567.7 hPa NNW 15 km/h 15 km/h 56 % 0 mm
14:39 -13.5 °C -18.1 °C 34567.7 hPa ENE 15 km/h 15 km/h 56 % 0 mm
14:44 -13.4 °C -17.9 °C 34567.7 hPa ENE 9 km/h 9 km/h 56 % 0 mm
15:09 -13.1 °C -17.7 °C 34533.8 hPa NE 12.7 km/h 12.7 km/h 56 % 0 mm
15:14 -13.1 °C -17.7 °C 34567.7 hPa North 4.2 km/h 4.2 km/h 56 % 0 mm
15:24 -13.1 °C -17.7 °C 34567.7 hPa NE 20.9 km/h 20.9 km/h 56 % 0 mm
15:29 -13 °C -17.6 °C 34533.8 hPa NNE 15 km/h 15 km/h 56 % 0 mm
15:34 -12.9 °C -17.6 °C 34533.8 hPa NNE 11.9 km/h 11.9 km/h 56 % 0 mm
15:44 -12.9 °C -17.6 °C 34567.7 hPa NNE 11.9 km/h 11.9 km/h 56 % 0 mm
15:49 -12.9 °C -17.6 °C 34567.7 hPa ENE 17.9 km/h 17.9 km/h 56 % 0 mm
15:54 -13 °C -17.7 °C 34567.7 hPa North 8 km/h 8 km/h 55 % 0 mm
16:04 -13 °C -17.6 °C 34567.7 hPa NNW 9 km/h 9 km/h 56 % 0 mm
16:09 -13.1 °C -17.7 °C 34567.7 hPa WNW 6 km/h 6 km/h 56 % 0 mm
16:14 -13.1 °C -17.7 °C 34567.7 hPa North 6 km/h 6 km/h 56 % 0 mm
16:24 -13.1 °C -17.7 °C 34567.7 hPa NNW 6 km/h 6 km/h 56 % 0 mm
16:29 -13 °C -17.6 °C 34567.7 hPa NNE 6 km/h 6 km/h 56 % 0 mm
16:34 -13.1 °C -17.7 °C 34567.7 hPa West 6 km/h 6 km/h 56 % 0 mm
16:39 -13.1 °C -17.7 °C 34567.7 hPa NNE 11.9 km/h 11.9 km/h 56 % 0 mm
16:44 -13.1 °C -17.7 °C 34567.7 hPa ENE 3.7 km/h 3.7 km/h 56 % 0 mm
16:49 -13.2 °C -17.8 °C 34567.7 hPa NNE 9 km/h 9 km/h 56 % 0 mm
16:59 -13.3 °C -17.9 °C 34567.7 hPa NNE 6.3 km/h 6.3 km/h 56 % 0 mm
17:04 -13.3 °C -17.9 °C 34567.7 hPa NNW 6 km/h 6 km/h 56 % 0 mm
17:09 -13.3 °C -17.9 °C 34567.7 hPa WNW 3.1 km/h   56 % 0 mm
17:34 -13.7 °C -18.1 °C 34567.7 hPa NE 3.1 km/h 3.1 km/h 57 % 0 mm
17:39 -13.7 °C -18.1 °C 34567.7 hPa NNE 3.1 km/h 3.1 km/h 57 % 0 mm
17:49 -13.8 °C -18.1 °C 34601.5 hPa NNW 6 km/h 6 km/h 58 % 0 mm
17:54 -13.8 °C -18.1 °C 34601.5 hPa Calm     58 % 0 mm
17:59 -13.9 °C -18.2 °C 34601.5 hPa SW 5.1 km/h 5.1 km/h 58 % 0 mm
18:04 -13.9 °C -18.2 °C 34601.5 hPa SSW 6 km/h 6 km/h 58 % 0 mm
18:14 -13.8 °C -18 °C 34567.7 hPa WSW 7.6 km/h 7.6 km/h 59 % 0 mm
18:19 -14 °C -18.2 °C 34567.7 hPa Calm     59 % 0 mm
18:24 -13.9 °C -18.1 °C 34567.7 hPa SW 3.1 km/h 3.1 km/h 59 % 0 mm
18:29 -13.9 °C -18.1 °C 34567.7 hPa WNW 3.7 km/h   59 % 0 mm
18:34 -13.9 °C -18.1 °C 34567.7 hPa WNW 5.1 km/h   59 % 0 mm
18:44 -13.9 °C -17.9 °C 34567.7 hPa WNW 3.1 km/h   60 % 0 mm
18:49 -13.9 °C -17.9 °C 34567.7 hPa West 3.1 km/h 3.1 km/h 60 % 0 mm
18:54 -13.9 °C -17.9 °C 34567.7 hPa NNE 3.1 km/h   60 % 0 mm
18:59 -13.9 °C -17.9 °C 34601.5 hPa NE 3.7 km/h 3.7 km/h 60 % 0 mm
19:04 -13.9 °C -17.9 °C 34601.5 hPa WNW 6 km/h 6 km/h 60 % 0 mm
19:05 -13.8 °C -17.9 °C 34601.5 hPa NNW 2.6 km/h 5.1 km/h 60 % 0 mm
19:15 -13.9 °C -17.9 °C 34567.7 hPa WSW 3.1 km/h 3.1 km/h 60 % 0 mm
19:20 -14.2 °C -18.2 °C 34567.7 hPa WSW 4.2 km/h 4.2 km/h 60 % 0 mm
19:25 -14.2 °C -18 °C 34567.7 hPa Calm   5.1 km/h 61 % 0 mm
19:30 -14 °C -17.9 °C 34567.7 hPa WNW 3.7 km/h 3.7 km/h 61 % 0 mm
19:35 -14.1 °C -17.9 °C 34567.7 hPa Calm   2.6 km/h 61 % 0 mm
19:40 -14.2 °C -18.1 °C 34567.7 hPa Calm     61 % 0 mm
19:45 -14.3 °C -18.2 °C 34567.7 hPa WSW 6 km/h 6 km/h 61 % 0 mm
19:50 -14.3 °C -18.2 °C 34567.7 hPa WSW 6 km/h 6 km/h 61 % 0 mm
19:55 -14.4 °C -18.3 °C 34567.7 hPa WSW 6 km/h 6 km/h 61 % 0 mm
20:00 -14.4 °C -18.3 °C 34567.7 hPa Calm     61 % 0 mm
20:05 -14.4 °C -18.2 °C 34567.7 hPa NNW 3.1 km/h 3.1 km/h 62 % 0 mm
20:10 -14.4 °C -18.2 °C 34567.7 hPa North 3.1 km/h 3.1 km/h 62 % 0 mm
20:15 -14.4 °C -18.2 °C 34567.7 hPa NW 3.1 km/h   62 % 0 mm
20:20 -14.4 °C -18.2 °C 34567.7 hPa NW 3.1 km/h   62 % 0 mm
20:25 -14.4 °C -18 °C 34567.7 hPa NNE 6 km/h 6 km/h 63 % 0 mm
20:30 -14.4 °C -18.2 °C 34567.7 hPa NNE 7.6 km/h 7.6 km/h 62 % 0 mm
20:40 -14.7 °C -18.3 °C 34567.7 hPa NNE 6.8 km/h 6.8 km/h 63 % 0 mm
20:50 -14.7 °C -18.3 °C 34567.7 hPa Calm     63 % 0 mm
20:55 -14.7 °C -18.2 °C 34567.7 hPa Calm     64 % 0 mm
21:00 -14.7 °C -18.2 °C 34567.7 hPa North 3.1 km/h 3.1 km/h 64 % 0 mm
21:05 -14.7 °C -18.2 °C 34567.7 hPa Calm     64 % 0 mm
21:20 -14.7 °C -18.2 °C 34567.7 hPa NNW 2.3 km/h   64 % 0 mm
21:25 -14.7 °C -18.2 °C 34567.7 hPa Calm     64 % 0 mm
21:40 -14.9 °C -18.4 °C 34533.8 hPa NNE 6 km/h 6 km/h 64 % 0 mm
21:45 -14.9 °C -18.2 °C 34567.7 hPa WSW 3.1 km/h 3.1 km/h 65 % 0 mm
21:50 -14.9 °C -18.2 °C 34567.7 hPa WSW 4.2 km/h   65 % 0 mm
21:55 -14.8 °C -18.2 °C 34567.7 hPa WSW 3.7 km/h 3.7 km/h 65 % 0 mm
22:05 -14.8 °C -18.2 °C 34533.8 hPa WSW 3.1 km/h 3.1 km/h 65 % 0 mm
22:15 -14.8 °C -18.2 °C 34533.8 hPa SW 3.1 km/h 3.1 km/h 65 % 0 mm
22:20 -14.8 °C -18.1 °C 34533.8 hPa SW 4.2 km/h   66 % 0 mm
22:25 -14.9 °C -18.2 °C 34533.8 hPa Calm     65 % 0 mm
22:30 -14.9 °C -18.2 °C 34533.8 hPa Calm     66 % 0 mm
22:35 -14.9 °C -18.3 °C 34533.8 hPa SW 6.3 km/h 6.3 km/h 65 % 0 mm
22:40 -15.1 °C -18.3 °C 34533.8 hPa Calm     66 % 0 mm
22:45 -15.1 °C -18.3 °C 34533.8 hPa WSW 3.1 km/h 3.1 km/h 66 % 0 mm
22:48 -15.1 °C -18.3 °C 34533.8 hPa West 3.1 km/h   66 % 0 mm
22:53 -15.1 °C -18.3 °C 34533.8 hPa Calm     66 % 0 mm
22:58 -15.2 °C -18.4 °C 34533.8 hPa NW 4.2 km/h 4.2 km/h 66 % 0 mm
23:13 -15.2 °C -18.3 °C 34533.8 hPa Calm     67 % 0 mm
23:18 -15.2 °C -18.3 °C 34533.8 hPa WNW 3.1 km/h   67 % 0 mm
23:23 -15.3 °C -18.5 °C 34533.8 hPa WSW 3.1 km/h 3.1 km/h 66 % 0 mm
23:38 -15.4 °C -18.6 °C 34496.6 hPa WSW 6 km/h 6 km/h 67 % 0 mm
23:43 -15.4 °C -18.4 °C 34533.8 hPa NNE 6 km/h 6 km/h 68 % 0 mm
23:53 -15.4 °C -18.3 °C 34533.8 hPa SSE 6 km/h   69 % 0 mm
23:58 -15.4 °C -18.3 °C 34533.8 hPa NE 3.1 km/h 3.1 km/h 69 % 0 mm
Meteo Sesrovires
Elogis d' Weather Underground - 3.25 mb

Guio original per  Jim McMurry - jmcmurry@mwt.net Adaptat per a la plantilla per  Wim van der Kuil - Leuven-Template.eu

Trobareu la nostra informacio del temps tambe a:

Weather Underground

AWEKAS